EGPL

Benbecula Airport

Balivanich, United Kingdom
METAR EGPL 241150Z 26016KT 9999 FEW022 13/07 Q1034
Observed Flight Rules
Sep-24 @ 11:50 UTC (12 minutes ago) Visual Flight Rules
Wind Visibility Clouds
260° at 16 knots 10,000+ meters
  • Few at 2,200' AGL
Temperatures Readings
Current 13°C / 55°F
Dewpoint 7°C / 45°F
Humidity 67%
Altimeter 30.53" Hg
Pressure 1034 hPa
Elevation 6
METAR EGPL 241150Z 26016KT 9999 FEW022 13/07 Q1034
Observed Flight Rules
Sep-24 @ 11:50 UTC
(12 minutes ago)
VFR
Wind Visibility
260° at 16 knots 10,000+ meters
Clouds
  • Few at 2,200' AGL
Temperature Dewpoint
13°C / 55°F 7°C / 45°F
Humidity Altimeter Pressure
67% 30.53" Hg 1034 hPa